sensor_id;sensor_type;location;lat;lon;timestamp;P1;durP1;ratioP1;P2;durP2;ratioP2
11791;SDS011;5953;52.372;9.918;2024-02-14T00:01:21;3.67;;;1.80;;
11791;SDS011;5953;52.372;9.918;2024-02-14T00:03:51;2.87;;;1.53;;
11791;SDS011;5953;52.372;9.918;2024-02-14T00:06:23;1.70;;;1.60;;
11791;SDS011;5953;52.372;9.918;2024-02-14T00:08:51;3.87;;;1.70;;
11791;SDS011;5953;52.372;9.918;2024-02-14T00:11:19;3.17;;;1.60;;
11791;SDS011;5953;52.372;9.918;2024-02-14T00:13:47;3.63;;;2.10;;
11791;SDS011;5953;52.372;9.918;2024-02-14T00:16:18;3.93;;;1.73;;
11791;SDS011;5953;52.372;9.918;2024-02-14T00:19:05;3.43;;;1.90;;
11791;SDS011;5953;52.372;9.918;2024-02-14T00:21:33;1.70;;;1.40;;
11791;SDS011;5953;52.372;9.918;2024-02-14T00:24:02;3.33;;;1.90;;
11791;SDS011;5953;52.372;9.918;2024-02-14T00:26:31;4.23;;;1.90;;
11791;SDS011;5953;52.372;9.918;2024-02-14T00:28:59;3.87;;;1.87;;
11791;SDS011;5953;52.372;9.918;2024-02-14T00:31:27;2.23;;;1.70;;
11791;SDS011;5953;52.372;9.918;2024-02-14T00:33:55;2.00;;;1.70;;
11791;SDS011;5953;52.372;9.918;2024-02-14T00:36:25;1.43;;;1.27;;
11791;SDS011;5953;52.372;9.918;2024-02-14T00:38:53;2.80;;;1.93;;
11791;SDS011;5953;52.372;9.918;2024-02-14T00:41:21;3.90;;;1.40;;
11791;SDS011;5953;52.372;9.918;2024-02-14T00:43:49;3.13;;;1.67;;
11791;SDS011;5953;52.372;9.918;2024-02-14T00:46:16;3.70;;;1.80;;
11791;SDS011;5953;52.372;9.918;2024-02-14T00:48:44;3.13;;;1.43;;
11791;SDS011;5953;52.372;9.918;2024-02-14T00:51:13;3.80;;;1.50;;
11791;SDS011;5953;52.372;9.918;2024-02-14T00:53:42;1.90;;;1.50;;
11791;SDS011;5953;52.372;9.918;2024-02-14T00:56:11;3.17;;;1.70;;
11791;SDS011;5953;52.372;9.918;2024-02-14T00:58:42;4.93;;;1.80;;
11791;SDS011;5953;52.372;9.918;2024-02-14T01:01:18;3.47;;;1.80;;
11791;SDS011;5953;52.372;9.918;2024-02-14T01:03:46;3.70;;;1.90;;
11791;SDS011;5953;52.372;9.918;2024-02-14T01:06:14;2.83;;;1.80;;
11791;SDS011;5953;52.372;9.918;2024-02-14T01:08:44;4.53;;;1.80;;
11791;SDS011;5953;52.372;9.918;2024-02-14T01:11:12;3.17;;;2.03;;
11791;SDS011;5953;52.372;9.918;2024-02-14T01:13:40;1.63;;;1.53;;
11791;SDS011;5953;52.372;9.918;2024-02-14T01:16:08;5.83;;;2.13;;
11791;SDS011;5953;52.372;9.918;2024-02-14T01:18:36;2.47;;;1.63;;
11791;SDS011;5953;52.372;9.918;2024-02-14T01:21:04;2.43;;;1.50;;
11791;SDS011;5953;52.372;9.918;2024-02-14T01:23:33;3.60;;;1.53;;
11791;SDS011;5953;52.372;9.918;2024-02-14T01:26:02;3.00;;;1.50;;
11791;SDS011;5953;52.372;9.918;2024-02-14T01:28:31;4.73;;;1.70;;
11791;SDS011;5953;52.372;9.918;2024-02-14T01:30:59;3.00;;;1.50;;
11791;SDS011;5953;52.372;9.918;2024-02-14T01:33:27;3.03;;;1.87;;
11791;SDS011;5953;52.372;9.918;2024-02-14T01:35:57;2.00;;;1.50;;
11791;SDS011;5953;52.372;9.918;2024-02-14T01:38:25;2.60;;;1.77;;
11791;SDS011;5953;52.372;9.918;2024-02-14T01:40:53;1.87;;;1.57;;
11791;SDS011;5953;52.372;9.918;2024-02-14T01:43:22;2.23;;;1.57;;
11791;SDS011;5953;52.372;9.918;2024-02-14T01:45:49;2.80;;;1.57;;
11791;SDS011;5953;52.372;9.918;2024-02-14T01:48:17;2.77;;;1.87;;
11791;SDS011;5953;52.372;9.918;2024-02-14T01:50:45;1.57;;;1.40;;
11791;SDS011;5953;52.372;9.918;2024-02-14T01:53:13;2.53;;;1.80;;
11791;SDS011;5953;52.372;9.918;2024-02-14T01:55:42;2.17;;;1.50;;
11791;SDS011;5953;52.372;9.918;2024-02-14T01:58:11;2.13;;;1.70;;
11791;SDS011;5953;52.372;9.918;2024-02-14T02:00:40;2.87;;;1.60;;
11791;SDS011;5953;52.372;9.918;2024-02-14T02:03:09;2.87;;;1.90;;
11791;SDS011;5953;52.372;9.918;2024-02-14T02:05:37;3.23;;;1.83;;
11791;SDS011;5953;52.372;9.918;2024-02-14T02:08:07;4.63;;;2.00;;
11791;SDS011;5953;52.372;9.918;2024-02-14T02:10:35;5.37;;;1.73;;
11791;SDS011;5953;52.372;9.918;2024-02-14T02:13:03;5.03;;;1.83;;
11791;SDS011;5953;52.372;9.918;2024-02-14T02:15:31;3.37;;;1.73;;
11791;SDS011;5953;52.372;9.918;2024-02-14T02:18:00;2.70;;;1.50;;
11791;SDS011;5953;52.372;9.918;2024-02-14T02:20:32;4.43;;;2.10;;
11791;SDS011;5953;52.372;9.918;2024-02-14T02:23:02;3.33;;;1.73;;
11791;SDS011;5953;52.372;9.918;2024-02-14T02:25:31;3.97;;;2.33;;
11791;SDS011;5953;52.372;9.918;2024-02-14T02:27:58;3.47;;;1.60;;
11791;SDS011;5953;52.372;9.918;2024-02-14T02:30:26;2.10;;;1.57;;
11791;SDS011;5953;52.372;9.918;2024-02-14T02:32:54;4.60;;;2.20;;
11791;SDS011;5953;52.372;9.918;2024-02-14T02:35:22;6.90;;;2.10;;
11791;SDS011;5953;52.372;9.918;2024-02-14T02:37:50;4.67;;;1.90;;
11791;SDS011;5953;52.372;9.918;2024-02-14T02:40:20;4.57;;;2.30;;
11791;SDS011;5953;52.372;9.918;2024-02-14T02:42:48;4.43;;;1.90;;
11791;SDS011;5953;52.372;9.918;2024-02-14T02:45:17;5.67;;;2.27;;
11791;SDS011;5953;52.372;9.918;2024-02-14T02:47:45;4.10;;;2.30;;
11791;SDS011;5953;52.372;9.918;2024-02-14T02:50:14;5.27;;;2.37;;
11791;SDS011;5953;52.372;9.918;2024-02-14T02:52:42;3.63;;;2.10;;
11791;SDS011;5953;52.372;9.918;2024-02-14T02:55:10;2.70;;;2.00;;
11791;SDS011;5953;52.372;9.918;2024-02-14T02:57:40;7.30;;;2.40;;
11791;SDS011;5953;52.372;9.918;2024-02-14T03:00:08;2.83;;;2.20;;
11791;SDS011;5953;52.372;9.918;2024-02-14T03:02:38;3.50;;;2.10;;
11791;SDS011;5953;52.372;9.918;2024-02-14T03:05:11;6.13;;;2.30;;
11791;SDS011;5953;52.372;9.918;2024-02-14T03:07:44;4.23;;;2.70;;
11791;SDS011;5953;52.372;9.918;2024-02-14T03:10:14;3.13;;;2.27;;
11791;SDS011;5953;52.372;9.918;2024-02-14T03:12:46;5.03;;;2.30;;
11791;SDS011;5953;52.372;9.918;2024-02-14T03:15:14;4.97;;;2.50;;
11791;SDS011;5953;52.372;9.918;2024-02-14T03:17:43;4.97;;;2.53;;
11791;SDS011;5953;52.372;9.918;2024-02-14T03:20:11;7.10;;;3.03;;
11791;SDS011;5953;52.372;9.918;2024-02-14T03:22:43;5.13;;;2.10;;
11791;SDS011;5953;52.372;9.918;2024-02-14T03:25:13;3.93;;;2.47;;
11791;SDS011;5953;52.372;9.918;2024-02-14T03:27:44;3.97;;;2.67;;
11791;SDS011;5953;52.372;9.918;2024-02-14T03:30:15;4.83;;;2.70;;
11791;SDS011;5953;52.372;9.918;2024-02-14T03:32:44;5.03;;;3.00;;
11791;SDS011;5953;52.372;9.918;2024-02-14T03:35:13;3.33;;;2.50;;
11791;SDS011;5953;52.372;9.918;2024-02-14T03:37:41;5.17;;;2.70;;
11791;SDS011;5953;52.372;9.918;2024-02-14T03:40:10;2.97;;;2.40;;
11791;SDS011;5953;52.372;9.918;2024-02-14T03:42:38;4.27;;;2.60;;
11791;SDS011;5953;52.372;9.918;2024-02-14T03:45:07;3.97;;;2.30;;
11791;SDS011;5953;52.372;9.918;2024-02-14T03:47:36;3.20;;;2.40;;
11791;SDS011;5953;52.372;9.918;2024-02-14T03:50:07;5.60;;;3.00;;
11791;SDS011;5953;52.372;9.918;2024-02-14T03:52:35;3.93;;;2.83;;
11791;SDS011;5953;52.372;9.918;2024-02-14T03:55:03;2.90;;;2.60;;
11791;SDS011;5953;52.372;9.918;2024-02-14T03:57:33;4.93;;;2.80;;
11791;SDS011;5953;52.372;9.918;2024-02-14T04:00:05;4.13;;;2.37;;
11791;SDS011;5953;52.372;9.918;2024-02-14T04:02:38;5.33;;;3.03;;
11791;SDS011;5953;52.372;9.918;2024-02-14T04:05:07;3.50;;;2.57;;
11791;SDS011;5953;52.372;9.918;2024-02-14T04:07:35;4.30;;;2.60;;
11791;SDS011;5953;52.372;9.918;2024-02-14T04:10:04;5.50;;;2.60;;
11791;SDS011;5953;52.372;9.918;2024-02-14T04:12:33;3.13;;;2.30;;
11791;SDS011;5953;52.372;9.918;2024-02-14T04:15:01;6.60;;;2.83;;
11791;SDS011;5953;52.372;9.918;2024-02-14T04:17:29;5.13;;;2.57;;
11791;SDS011;5953;52.372;9.918;2024-02-14T04:19:58;2.57;;;2.20;;
11791;SDS011;5953;52.372;9.918;2024-02-14T04:22:26;6.60;;;2.73;;
11791;SDS011;5953;52.372;9.918;2024-02-14T04:24:54;5.60;;;2.57;;
11791;SDS011;5953;52.372;9.918;2024-02-14T04:27:22;3.80;;;2.93;;
11791;SDS011;5953;52.372;9.918;2024-02-14T04:29:50;3.87;;;2.30;;
11791;SDS011;5953;52.372;9.918;2024-02-14T04:32:18;4.63;;;2.33;;
11791;SDS011;5953;52.372;9.918;2024-02-14T04:34:46;3.87;;;2.43;;
11791;SDS011;5953;52.372;9.918;2024-02-14T04:37:17;3.97;;;2.23;;
11791;SDS011;5953;52.372;9.918;2024-02-14T04:39:46;5.53;;;2.70;;
11791;SDS011;5953;52.372;9.918;2024-02-14T04:42:14;3.87;;;2.27;;
11791;SDS011;5953;52.372;9.918;2024-02-14T04:44:42;4.90;;;2.63;;
11791;SDS011;5953;52.372;9.918;2024-02-14T04:47:10;2.73;;;2.40;;
11791;SDS011;5953;52.372;9.918;2024-02-14T04:49:37;5.10;;;2.60;;
11791;SDS011;5953;52.372;9.918;2024-02-14T04:52:05;4.37;;;3.10;;
11791;SDS011;5953;52.372;9.918;2024-02-14T04:54:35;5.00;;;2.50;;
11791;SDS011;5953;52.372;9.918;2024-02-14T04:57:03;5.33;;;3.53;;
11791;SDS011;5953;52.372;9.918;2024-02-14T04:59:30;8.13;;;3.03;;
11791;SDS011;5953;52.372;9.918;2024-02-14T05:01:59;4.20;;;3.00;;
11791;SDS011;5953;52.372;9.918;2024-02-14T05:04:26;6.37;;;2.87;;
11791;SDS011;5953;52.372;9.918;2024-02-14T05:06:55;6.10;;;3.10;;
11791;SDS011;5953;52.372;9.918;2024-02-14T05:09:25;4.83;;;2.97;;
11791;SDS011;5953;52.372;9.918;2024-02-14T05:11:54;4.23;;;3.37;;
11791;SDS011;5953;52.372;9.918;2024-02-14T05:14:22;5.47;;;2.87;;
11791;SDS011;5953;52.372;9.918;2024-02-14T05:16:50;4.47;;;2.90;;
11791;SDS011;5953;52.372;9.918;2024-02-14T05:19:18;5.57;;;3.00;;
11791;SDS011;5953;52.372;9.918;2024-02-14T05:21:48;5.00;;;2.90;;
11791;SDS011;5953;52.372;9.918;2024-02-14T05:24:16;5.30;;;2.37;;
11791;SDS011;5953;52.372;9.918;2024-02-14T05:26:45;5.80;;;2.77;;
11791;SDS011;5953;52.372;9.918;2024-02-14T05:29:14;7.50;;;2.67;;
11791;SDS011;5953;52.372;9.918;2024-02-14T05:31:45;4.53;;;3.17;;
11791;SDS011;5953;52.372;9.918;2024-02-14T05:34:15;4.40;;;3.40;;
11791;SDS011;5953;52.372;9.918;2024-02-14T05:36:43;5.70;;;3.03;;
11791;SDS011;5953;52.372;9.918;2024-02-14T05:39:12;8.10;;;3.43;;
11791;SDS011;5953;52.372;9.918;2024-02-14T05:41:42;6.17;;;2.80;;
11791;SDS011;5953;52.372;9.918;2024-02-14T05:44:10;4.17;;;3.10;;
11791;SDS011;5953;52.372;9.918;2024-02-14T05:46:39;6.00;;;3.43;;
11791;SDS011;5953;52.372;9.918;2024-02-14T05:49:07;4.37;;;2.93;;
11791;SDS011;5953;52.372;9.918;2024-02-14T05:51:35;6.57;;;3.50;;
11791;SDS011;5953;52.372;9.918;2024-02-14T05:54:03;4.77;;;2.77;;
11791;SDS011;5953;52.372;9.918;2024-02-14T05:56:31;6.57;;;2.93;;
11791;SDS011;5953;52.372;9.918;2024-02-14T05:58:59;8.67;;;3.07;;
11791;SDS011;5953;52.372;9.918;2024-02-14T06:01:27;3.63;;;3.10;;
11791;SDS011;5953;52.372;9.918;2024-02-14T06:03:56;7.00;;;2.97;;
11791;SDS011;5953;52.372;9.918;2024-02-14T06:06:24;6.30;;;3.13;;
11791;SDS011;5953;52.372;9.918;2024-02-14T06:08:52;6.43;;;2.90;;
11791;SDS011;5953;52.372;9.918;2024-02-14T06:11:21;4.33;;;3.33;;
11791;SDS011;5953;52.372;9.918;2024-02-14T06:13:48;4.30;;;2.83;;
11791;SDS011;5953;52.372;9.918;2024-02-14T06:16:16;3.97;;;3.00;;
11791;SDS011;5953;52.372;9.918;2024-02-14T06:18:44;6.53;;;2.80;;
11791;SDS011;5953;52.372;9.918;2024-02-14T06:21:14;5.43;;;3.30;;
11791;SDS011;5953;52.372;9.918;2024-02-14T06:23:42;4.03;;;2.67;;
11791;SDS011;5953;52.372;9.918;2024-02-14T06:26:13;4.97;;;3.47;;
11791;SDS011;5953;52.372;9.918;2024-02-14T06:28:41;4.23;;;2.63;;
11791;SDS011;5953;52.372;9.918;2024-02-14T06:31:08;3.77;;;2.67;;
11791;SDS011;5953;52.372;9.918;2024-02-14T06:33:36;3.60;;;3.10;;
11791;SDS011;5953;52.372;9.918;2024-02-14T06:36:04;6.97;;;3.00;;
11791;SDS011;5953;52.372;9.918;2024-02-14T06:38:34;4.93;;;3.17;;
11791;SDS011;5953;52.372;9.918;2024-02-14T06:41:02;3.90;;;2.30;;
11791;SDS011;5953;52.372;9.918;2024-02-14T06:43:29;6.53;;;3.80;;
11791;SDS011;5953;52.372;9.918;2024-02-14T06:45:57;4.50;;;3.17;;
11791;SDS011;5953;52.372;9.918;2024-02-14T06:48:25;4.27;;;2.93;;
11791;SDS011;5953;52.372;9.918;2024-02-14T06:50:53;7.10;;;3.00;;
11791;SDS011;5953;52.372;9.918;2024-02-14T06:53:21;5.87;;;2.83;;
11791;SDS011;5953;52.372;9.918;2024-02-14T06:55:51;4.53;;;2.50;;
11791;SDS011;5953;52.372;9.918;2024-02-14T06:58:18;4.90;;;2.50;;
11791;SDS011;5953;52.372;9.918;2024-02-14T07:00:46;5.60;;;3.23;;
11791;SDS011;5953;52.372;9.918;2024-02-14T07:03:14;3.40;;;2.60;;
11791;SDS011;5953;52.372;9.918;2024-02-14T07:05:42;6.07;;;3.37;;
11791;SDS011;5953;52.372;9.918;2024-02-14T07:08:10;5.53;;;2.70;;
11791;SDS011;5953;52.372;9.918;2024-02-14T07:10:38;5.20;;;2.80;;
11791;SDS011;5953;52.372;9.918;2024-02-14T07:13:07;5.37;;;3.37;;
11791;SDS011;5953;52.372;9.918;2024-02-14T07:15:34;3.97;;;2.60;;
11791;SDS011;5953;52.372;9.918;2024-02-14T07:18:02;4.30;;;2.70;;
11791;SDS011;5953;52.372;9.918;2024-02-14T07:20:30;4.20;;;2.83;;
11791;SDS011;5953;52.372;9.918;2024-02-14T07:22:58;3.37;;;2.60;;
11791;SDS011;5953;52.372;9.918;2024-02-14T07:25:26;4.57;;;2.30;;
11791;SDS011;5953;52.372;9.918;2024-02-14T07:27:54;4.50;;;2.67;;
11791;SDS011;5953;52.372;9.918;2024-02-14T07:30:23;5.67;;;2.80;;
11791;SDS011;5953;52.372;9.918;2024-02-14T07:32:52;5.07;;;2.70;;
11791;SDS011;5953;52.372;9.918;2024-02-14T07:35:20;3.67;;;2.40;;
11791;SDS011;5953;52.372;9.918;2024-02-14T07:37:48;7.00;;;2.97;;
11791;SDS011;5953;52.372;9.918;2024-02-14T07:40:15;3.80;;;2.37;;
11791;SDS011;5953;52.372;9.918;2024-02-14T07:42:44;2.57;;;2.37;;
11791;SDS011;5953;52.372;9.918;2024-02-14T07:45:12;3.00;;;2.30;;
11791;SDS011;5953;52.372;9.918;2024-02-14T07:47:41;4.83;;;2.40;;
11791;SDS011;5953;52.372;9.918;2024-02-14T07:50:09;4.60;;;2.70;;
11791;SDS011;5953;52.372;9.918;2024-02-14T07:52:41;3.50;;;2.37;;
11791;SDS011;5953;52.372;9.918;2024-02-14T07:55:09;3.33;;;2.53;;
11791;SDS011;5953;52.372;9.918;2024-02-14T07:57:38;4.57;;;2.60;;
11791;SDS011;5953;52.372;9.918;2024-02-14T08:00:06;3.37;;;2.30;;
11791;SDS011;5953;52.372;9.918;2024-02-14T08:02:36;4.80;;;2.50;;
11791;SDS011;5953;52.372;9.918;2024-02-14T08:05:06;4.77;;;2.80;;
11791;SDS011;5953;52.372;9.918;2024-02-14T08:07:35;4.47;;;2.47;;
11791;SDS011;5953;52.372;9.918;2024-02-14T08:10:03;4.07;;;2.70;;
11791;SDS011;5953;52.372;9.918;2024-02-14T08:12:31;3.33;;;2.07;;
11791;SDS011;5953;52.372;9.918;2024-02-14T08:14:59;3.73;;;2.40;;
11791;SDS011;5953;52.372;9.918;2024-02-14T08:17:30;2.50;;;2.27;;
11791;SDS011;5953;52.372;9.918;2024-02-14T08:19:58;2.67;;;2.07;;
11791;SDS011;5953;52.372;9.918;2024-02-14T08:22:28;4.97;;;1.90;;
11791;SDS011;5953;52.372;9.918;2024-02-14T08:24:56;3.63;;;1.63;;
11791;SDS011;5953;52.372;9.918;2024-02-14T08:27:23;2.37;;;1.40;;
11791;SDS011;5953;52.372;9.918;2024-02-14T08:29:52;3.33;;;1.70;;
11791;SDS011;5953;52.372;9.918;2024-02-14T08:32:20;3.33;;;1.80;;
11791;SDS011;5953;52.372;9.918;2024-02-14T08:34:50;1.67;;;1.53;;
11791;SDS011;5953;52.372;9.918;2024-02-14T08:41:00;2.33;;;1.50;;
11791;SDS011;5953;52.372;9.918;2024-02-14T08:43:28;4.53;;;1.60;;
11791;SDS011;5953;52.372;9.918;2024-02-14T08:45:56;1.50;;;1.40;;
11791;SDS011;5953;52.372;9.918;2024-02-14T08:48:24;1.93;;;1.40;;
11791;SDS011;5953;52.372;9.918;2024-02-14T08:50:55;2.87;;;1.57;;
11791;SDS011;5953;52.372;9.918;2024-02-14T08:53:24;2.40;;;1.80;;
11791;SDS011;5953;52.372;9.918;2024-02-14T08:55:53;1.30;;;1.20;;
11791;SDS011;5953;52.372;9.918;2024-02-14T08:58:22;2.10;;;1.53;;
11791;SDS011;5953;52.372;9.918;2024-02-14T09:00:50;1.27;;;1.17;;
11791;SDS011;5953;52.372;9.918;2024-02-14T09:03:34;2.87;;;1.70;;
11791;SDS011;5953;52.372;9.918;2024-02-14T09:06:02;4.00;;;1.87;;
11791;SDS011;5953;52.372;9.918;2024-02-14T09:08:30;2.00;;;1.80;;
11791;SDS011;5953;52.372;9.918;2024-02-14T09:10:58;1.70;;;1.60;;
11791;SDS011;5953;52.372;9.918;2024-02-14T09:13:27;4.43;;;1.83;;
11791;SDS011;5953;52.372;9.918;2024-02-14T09:15:57;2.27;;;1.90;;
11791;SDS011;5953;52.372;9.918;2024-02-14T09:18:25;4.03;;;1.70;;
11791;SDS011;5953;52.372;9.918;2024-02-14T09:20:53;2.93;;;1.93;;
11791;SDS011;5953;52.372;9.918;2024-02-14T09:23:23;2.30;;;2.10;;
11791;SDS011;5953;52.372;9.918;2024-02-14T09:25:50;2.30;;;2.10;;
11791;SDS011;5953;52.372;9.918;2024-02-14T09:28:19;3.20;;;2.67;;
11791;SDS011;5953;52.372;9.918;2024-02-14T09:30:48;2.80;;;2.43;;
11791;SDS011;5953;52.372;9.918;2024-02-14T09:33:16;3.33;;;3.03;;
11791;SDS011;5953;52.372;9.918;2024-02-14T09:35:44;4.03;;;3.00;;
11791;SDS011;5953;52.372;9.918;2024-02-14T09:38:14;3.63;;;2.97;;
11791;SDS011;5953;52.372;9.918;2024-02-14T09:40:41;5.10;;;3.90;;
11791;SDS011;5953;52.372;9.918;2024-02-14T09:43:11;7.93;;;4.97;;
11791;SDS011;5953;52.372;9.918;2024-02-14T09:45:45;5.03;;;4.00;;
11791;SDS011;5953;52.372;9.918;2024-02-14T09:48:15;9.30;;;4.80;;
11791;SDS011;5953;52.372;9.918;2024-02-14T09:50:44;8.13;;;4.83;;
11791;SDS011;5953;52.372;9.918;2024-02-14T09:53:13;7.47;;;5.70;;
11791;SDS011;5953;52.372;9.918;2024-02-14T09:55:42;5.17;;;4.67;;
11791;SDS011;5953;52.372;9.918;2024-02-14T09:58:10;8.30;;;5.57;;
11791;SDS011;5953;52.372;9.918;2024-02-14T10:00:38;19.50;;;7.50;;
11791;SDS011;5953;52.372;9.918;2024-02-14T10:03:07;6.20;;;5.57;;
11791;SDS011;5953;52.372;9.918;2024-02-14T10:05:37;7.17;;;5.40;;
11791;SDS011;5953;52.372;9.918;2024-02-14T10:08:05;7.90;;;5.57;;
11791;SDS011;5953;52.372;9.918;2024-02-14T10:10:35;8.67;;;6.30;;
11791;SDS011;5953;52.372;9.918;2024-02-14T10:13:03;21.60;;;9.07;;
11791;SDS011;5953;52.372;9.918;2024-02-14T10:15:32;10.07;;;7.27;;
11791;SDS011;5953;52.372;9.918;2024-02-14T10:18:00;9.70;;;6.13;;
11791;SDS011;5953;52.372;9.918;2024-02-14T10:20:30;7.03;;;6.43;;
11791;SDS011;5953;52.372;9.918;2024-02-14T10:23:02;11.93;;;6.90;;
11791;SDS011;5953;52.372;9.918;2024-02-14T10:25:30;9.37;;;6.37;;
11791;SDS011;5953;52.372;9.918;2024-02-14T10:28:03;6.57;;;5.80;;
11791;SDS011;5953;52.372;9.918;2024-02-14T10:30:31;6.67;;;5.73;;
11791;SDS011;5953;52.372;9.918;2024-02-14T10:32:59;6.20;;;5.60;;
11791;SDS011;5953;52.372;9.918;2024-02-14T10:35:42;40.27;;;10.83;;
11791;SDS011;5953;52.372;9.918;2024-02-14T10:38:11;7.23;;;5.93;;
11791;SDS011;5953;52.372;9.918;2024-02-14T10:40:39;7.03;;;5.70;;
11791;SDS011;5953;52.372;9.918;2024-02-14T10:43:09;73.23;;;11.67;;
11791;SDS011;5953;52.372;9.918;2024-02-14T10:45:36;5.50;;;4.90;;
11791;SDS011;5953;52.372;9.918;2024-02-14T10:48:04;6.80;;;5.93;;
11791;SDS011;5953;52.372;9.918;2024-02-14T10:50:34;7.80;;;5.23;;
11791;SDS011;5953;52.372;9.918;2024-02-14T10:53:09;7.73;;;4.90;;
11791;SDS011;5953;52.372;9.918;2024-02-14T10:55:42;5.90;;;5.30;;
11791;SDS011;5953;52.372;9.918;2024-02-14T10:58:13;5.30;;;4.70;;
11791;SDS011;5953;52.372;9.918;2024-02-14T11:00:43;8.90;;;5.07;;
11791;SDS011;5953;52.372;9.918;2024-02-14T11:03:11;5.80;;;5.10;;
11791;SDS011;5953;52.372;9.918;2024-02-14T11:05:44;5.13;;;4.70;;
11791;SDS011;5953;52.372;9.918;2024-02-14T11:08:14;9.00;;;5.10;;
11791;SDS011;5953;52.372;9.918;2024-02-14T11:10:42;5.83;;;4.60;;
11791;SDS011;5953;52.372;9.918;2024-02-14T11:13:12;5.53;;;4.53;;
11791;SDS011;5953;52.372;9.918;2024-02-14T11:15:44;5.43;;;4.17;;
11791;SDS011;5953;52.372;9.918;2024-02-14T11:18:12;5.50;;;4.30;;
11791;SDS011;5953;52.372;9.918;2024-02-14T11:20:41;5.40;;;5.00;;
11791;SDS011;5953;52.372;9.918;2024-02-14T11:23:12;5.77;;;5.17;;
11791;SDS011;5953;52.372;9.918;2024-02-14T11:25:50;5.23;;;4.33;;
11791;SDS011;5953;52.372;9.918;2024-02-14T11:28:18;5.47;;;4.97;;
11791;SDS011;5953;52.372;9.918;2024-02-14T11:30:47;5.43;;;4.93;;
11791;SDS011;5953;52.372;9.918;2024-02-14T11:33:15;5.30;;;4.47;;
11791;SDS011;5953;52.372;9.918;2024-02-14T11:35:45;5.57;;;5.07;;
11791;SDS011;5953;52.372;9.918;2024-02-14T11:38:14;5.47;;;4.90;;
11791;SDS011;5953;52.372;9.918;2024-02-14T11:40:43;6.97;;;4.87;;
11791;SDS011;5953;52.372;9.918;2024-02-14T11:43:12;5.70;;;5.20;;
11791;SDS011;5953;52.372;9.918;2024-02-14T11:45:41;6.00;;;4.93;;
11791;SDS011;5953;52.372;9.918;2024-02-14T11:48:12;5.33;;;4.47;;
11791;SDS011;5953;52.372;9.918;2024-02-14T11:50:41;5.90;;;4.63;;
11791;SDS011;5953;52.372;9.918;2024-02-14T11:53:11;5.17;;;4.57;;
11791;SDS011;5953;52.372;9.918;2024-02-14T11:55:40;4.63;;;4.23;;
11791;SDS011;5953;52.372;9.918;2024-02-14T11:58:10;5.37;;;4.40;;
11791;SDS011;5953;52.372;9.918;2024-02-14T12:00:39;6.63;;;4.33;;
11791;SDS011;5953;52.372;9.918;2024-02-14T12:03:09;5.83;;;5.23;;
11791;SDS011;5953;52.372;9.918;2024-02-14T12:05:38;4.77;;;3.80;;
11791;SDS011;5953;52.372;9.918;2024-02-14T12:08:07;5.13;;;4.63;;
11791;SDS011;5953;52.372;9.918;2024-02-14T12:10:36;4.37;;;4.00;;
11791;SDS011;5953;52.372;9.918;2024-02-14T12:13:06;5.10;;;4.43;;
11791;SDS011;5953;52.372;9.918;2024-02-14T12:15:40;4.90;;;4.40;;
11791;SDS011;5953;52.372;9.918;2024-02-14T12:18:08;5.53;;;4.80;;
11791;SDS011;5953;52.372;9.918;2024-02-14T12:20:37;5.07;;;4.57;;
11791;SDS011;5953;52.372;9.918;2024-02-14T12:23:05;5.10;;;4.20;;
11791;SDS011;5953;52.372;9.918;2024-02-14T12:25:33;6.07;;;4.63;;
11791;SDS011;5953;52.372;9.918;2024-02-14T12:28:01;5.50;;;4.47;;
11791;SDS011;5953;52.372;9.918;2024-02-14T12:30:41;6.93;;;4.97;;
11791;SDS011;5953;52.372;9.918;2024-02-14T12:33:12;6.30;;;5.77;;
11791;SDS011;5953;52.372;9.918;2024-02-14T12:35:42;12.73;;;5.67;;
11791;SDS011;5953;52.372;9.918;2024-02-14T12:38:11;6.63;;;6.00;;
11791;SDS011;5953;52.372;9.918;2024-02-14T12:40:41;9.17;;;6.13;;
11791;SDS011;5953;52.372;9.918;2024-02-14T12:43:10;7.57;;;6.83;;
11791;SDS011;5953;52.372;9.918;2024-02-14T12:45:39;7.33;;;6.10;;
11791;SDS011;5953;52.372;9.918;2024-02-14T12:48:09;10.97;;;7.50;;
11791;SDS011;5953;52.372;9.918;2024-02-14T12:50:40;7.27;;;6.37;;
11791;SDS011;5953;52.372;9.918;2024-02-14T12:53:14;7.87;;;6.43;;
11791;SDS011;5953;52.372;9.918;2024-02-14T12:55:41;6.30;;;5.70;;
11791;SDS011;5953;52.372;9.918;2024-02-14T12:58:09;7.80;;;7.10;;
11791;SDS011;5953;52.372;9.918;2024-02-14T13:00:37;6.90;;;6.20;;
11791;SDS011;5953;52.372;9.918;2024-02-14T13:03:05;8.23;;;7.43;;
11791;SDS011;5953;52.372;9.918;2024-02-14T13:05:35;9.20;;;6.60;;
11791;SDS011;5953;52.372;9.918;2024-02-14T13:08:04;7.67;;;6.90;;
11791;SDS011;5953;52.372;9.918;2024-02-14T13:10:32;7.27;;;6.47;;
11791;SDS011;5953;52.372;9.918;2024-02-14T13:13:00;20.27;;;7.93;;
11791;SDS011;5953;52.372;9.918;2024-02-14T13:15:28;8.77;;;6.13;;
11791;SDS011;5953;52.372;9.918;2024-02-14T13:17:56;7.57;;;6.70;;
11791;SDS011;5953;52.372;9.918;2024-02-14T13:20:25;7.43;;;6.73;;
11791;SDS011;5953;52.372;9.918;2024-02-14T13:22:56;7.97;;;6.83;;
11791;SDS011;5953;52.372;9.918;2024-02-14T13:25:24;8.33;;;7.20;;
11791;SDS011;5953;52.372;9.918;2024-02-14T13:27:52;15.37;;;7.80;;
11791;SDS011;5953;52.372;9.918;2024-02-14T13:30:21;23.00;;;9.00;;
11791;SDS011;5953;52.372;9.918;2024-02-14T13:32:49;7.13;;;6.43;;
11791;SDS011;5953;52.372;9.918;2024-02-14T13:35:17;25.30;;;8.17;;
11791;SDS011;5953;52.372;9.918;2024-02-14T13:37:45;13.57;;;7.97;;
11791;SDS011;5953;52.372;9.918;2024-02-14T13:40:16;9.80;;;6.40;;
11791;SDS011;5953;52.372;9.918;2024-02-14T13:42:44;7.33;;;5.27;;
11791;SDS011;5953;52.372;9.918;2024-02-14T13:45:12;5.77;;;5.27;;
11791;SDS011;5953;52.372;9.918;2024-02-14T13:47:41;26.07;;;9.37;;
11791;SDS011;5953;52.372;9.918;2024-02-14T13:50:10;5.73;;;5.20;;
11791;SDS011;5953;52.372;9.918;2024-02-14T13:52:38;7.63;;;5.70;;
11791;SDS011;5953;52.372;9.918;2024-02-14T13:55:08;5.60;;;4.67;;
11791;SDS011;5953;52.372;9.918;2024-02-14T13:57:41;5.17;;;4.77;;
11791;SDS011;5953;52.372;9.918;2024-02-14T14:00:12;5.07;;;4.67;;
11791;SDS011;5953;52.372;9.918;2024-02-14T14:02:43;5.57;;;4.80;;
11791;SDS011;5953;52.372;9.918;2024-02-14T14:05:11;5.13;;;4.00;;
11791;SDS011;5953;52.372;9.918;2024-02-14T14:07:46;5.23;;;4.60;;
11791;SDS011;5953;52.372;9.918;2024-02-14T14:10:24;4.83;;;4.10;;
11791;SDS011;5953;52.372;9.918;2024-02-14T14:12:56;4.10;;;3.80;;
11791;SDS011;5953;52.372;9.918;2024-02-14T14:15:24;3.83;;;2.90;;
11791;SDS011;5953;52.372;9.918;2024-02-14T14:17:58;3.60;;;3.30;;
11791;SDS011;5953;52.372;9.918;2024-02-14T14:20:32;3.77;;;2.97;;
11791;SDS011;5953;52.372;9.918;2024-02-14T14:23:06;3.23;;;3.03;;
11791;SDS011;5953;52.372;9.918;2024-02-14T14:25:38;2.83;;;2.60;;
11791;SDS011;5953;52.372;9.918;2024-02-14T14:28:08;2.97;;;2.37;;
11791;SDS011;5953;52.372;9.918;2024-02-14T14:30:36;3.03;;;2.73;;
11791;SDS011;5953;52.372;9.918;2024-02-14T14:33:05;3.10;;;2.10;;
11791;SDS011;5953;52.372;9.918;2024-02-14T14:35:35;2.30;;;2.20;;
11791;SDS011;5953;52.372;9.918;2024-02-14T14:38:03;2.67;;;2.00;;
11791;SDS011;5953;52.372;9.918;2024-02-14T14:40:31;2.40;;;2.20;;
11791;SDS011;5953;52.372;9.918;2024-02-14T14:43:00;2.83;;;2.20;;
11791;SDS011;5953;52.372;9.918;2024-02-14T14:45:30;1.90;;;1.80;;
11791;SDS011;5953;52.372;9.918;2024-02-14T14:48:01;2.60;;;2.03;;
11791;SDS011;5953;52.372;9.918;2024-02-14T14:50:33;1.97;;;1.80;;
11791;SDS011;5953;52.372;9.918;2024-02-14T14:53:01;2.13;;;2.03;;
11791;SDS011;5953;52.372;9.918;2024-02-14T14:55:48;2.10;;;1.97;;
11791;SDS011;5953;52.372;9.918;2024-02-14T14:58:18;2.50;;;2.30;;
11791;SDS011;5953;52.372;9.918;2024-02-14T15:00:55;1.87;;;1.77;;
11791;SDS011;5953;52.372;9.918;2024-02-14T15:03:26;2.50;;;2.30;;
11791;SDS011;5953;52.372;9.918;2024-02-14T15:05:57;1.70;;;1.60;;
11791;SDS011;5953;52.372;9.918;2024-02-14T15:08:29;3.27;;;1.97;;
11791;SDS011;5953;52.372;9.918;2024-02-14T15:10:57;1.80;;;1.70;;
11791;SDS011;5953;52.372;9.918;2024-02-14T15:13:25;1.80;;;1.70;;
11791;SDS011;5953;52.372;9.918;2024-02-14T15:15:55;3.63;;;1.80;;